sensor_id;sensor_type;location;lat;lon;timestamp;P1;durP1;ratioP1;P2;durP2;ratioP2
35644;SDS011;21764;52.042;6.830;2022-11-10T00:01:32;19.42;;;4.90;;
35644;SDS011;21764;52.042;6.830;2022-11-10T00:06:33;23.23;;;5.00;;
35644;SDS011;21764;52.042;6.830;2022-11-10T00:11:34;22.88;;;5.80;;
35644;SDS011;21764;52.042;6.830;2022-11-10T00:16:34;21.52;;;5.22;;
35644;SDS011;21764;52.042;6.830;2022-11-10T00:21:54;24.13;;;5.45;;
35644;SDS011;21764;52.042;6.830;2022-11-10T00:26:55;20.25;;;4.80;;
35644;SDS011;21764;52.042;6.830;2022-11-10T00:31:55;20.55;;;5.07;;
35644;SDS011;21764;52.042;6.830;2022-11-10T00:36:56;27.10;;;5.35;;
35644;SDS011;21764;52.042;6.830;2022-11-10T00:41:57;22.15;;;6.22;;
35644;SDS011;21764;52.042;6.830;2022-11-10T00:46:58;23.63;;;5.85;;
35644;SDS011;21764;52.042;6.830;2022-11-10T00:51:58;24.25;;;5.65;;
35644;SDS011;21764;52.042;6.830;2022-11-10T00:57:00;27.13;;;5.85;;
35644;SDS011;21764;52.042;6.830;2022-11-10T01:02:01;31.42;;;6.35;;
35644;SDS011;21764;52.042;6.830;2022-11-10T01:07:02;33.05;;;6.05;;
35644;SDS011;21764;52.042;6.830;2022-11-10T01:12:02;32.63;;;6.05;;
35644;SDS011;21764;52.042;6.830;2022-11-10T01:17:03;27.80;;;6.05;;
35644;SDS011;21764;52.042;6.830;2022-11-10T01:22:04;21.15;;;5.85;;
35644;SDS011;21764;52.042;6.830;2022-11-10T01:27:05;19.55;;;6.35;;
35644;SDS011;21764;52.042;6.830;2022-11-10T01:32:05;19.40;;;5.28;;
35644;SDS011;21764;52.042;6.830;2022-11-10T01:37:10;30.05;;;5.80;;
35644;SDS011;21764;52.042;6.830;2022-11-10T01:42:11;25.77;;;6.03;;
35644;SDS011;21764;52.042;6.830;2022-11-10T01:47:11;22.55;;;6.13;;
35644;SDS011;21764;52.042;6.830;2022-11-10T01:52:12;28.58;;;6.30;;
35644;SDS011;21764;52.042;6.830;2022-11-10T01:57:14;23.88;;;6.60;;
35644;SDS011;21764;52.042;6.830;2022-11-10T02:02:38;31.33;;;6.38;;
35644;SDS011;21764;52.042;6.830;2022-11-10T02:07:40;26.08;;;6.22;;
35644;SDS011;21764;52.042;6.830;2022-11-10T02:12:41;22.15;;;6.53;;
35644;SDS011;21764;52.042;6.830;2022-11-10T02:29:38;21.08;;;6.38;;
35644;SDS011;21764;52.042;6.830;2022-11-10T02:34:43;31.90;;;7.70;;
35644;SDS011;21764;52.042;6.830;2022-11-10T02:39:46;34.38;;;6.18;;
35644;SDS011;21764;52.042;6.830;2022-11-10T02:44:47;27.20;;;6.18;;
35644;SDS011;21764;52.042;6.830;2022-11-10T02:49:48;30.42;;;7.78;;
35644;SDS011;21764;52.042;6.830;2022-11-10T02:54:49;29.10;;;7.35;;
35644;SDS011;21764;52.042;6.830;2022-11-10T02:59:49;33.42;;;7.35;;
35644;SDS011;21764;52.042;6.830;2022-11-10T03:04:50;25.60;;;7.00;;
35644;SDS011;21764;52.042;6.830;2022-11-10T03:09:51;27.90;;;6.72;;
35644;SDS011;21764;52.042;6.830;2022-11-10T03:14:51;29.73;;;6.90;;
35644;SDS011;21764;52.042;6.830;2022-11-10T03:19:54;31.40;;;7.57;;
35644;SDS011;21764;52.042;6.830;2022-11-10T03:24:54;34.78;;;7.45;;
35644;SDS011;21764;52.042;6.830;2022-11-10T03:29:55;31.20;;;6.38;;
35644;SDS011;21764;52.042;6.830;2022-11-10T03:34:56;27.75;;;7.00;;
35644;SDS011;21764;52.042;6.830;2022-11-10T03:39:56;31.55;;;6.90;;
35644;SDS011;21764;52.042;6.830;2022-11-10T03:44:57;33.88;;;6.97;;
35644;SDS011;21764;52.042;6.830;2022-11-10T03:49:58;38.50;;;6.45;;
35644;SDS011;21764;52.042;6.830;2022-11-10T03:54:58;30.40;;;7.20;;
35644;SDS011;21764;52.042;6.830;2022-11-10T03:59:59;32.95;;;7.28;;
35644;SDS011;21764;52.042;6.830;2022-11-10T04:04:59;27.88;;;7.18;;
35644;SDS011;21764;52.042;6.830;2022-11-10T04:10:19;34.38;;;7.40;;
35644;SDS011;21764;52.042;6.830;2022-11-10T04:15:20;28.55;;;7.10;;
35644;SDS011;21764;52.042;6.830;2022-11-10T04:20:39;32.60;;;6.30;;
35644;SDS011;21764;52.042;6.830;2022-11-10T04:25:40;35.17;;;7.22;;
35644;SDS011;21764;52.042;6.830;2022-11-10T04:31:00;30.33;;;6.53;;
35644;SDS011;21764;52.042;6.830;2022-11-10T04:36:01;30.33;;;6.97;;
35644;SDS011;21764;52.042;6.830;2022-11-10T04:41:03;37.45;;;6.45;;
35644;SDS011;21764;52.042;6.830;2022-11-10T04:46:04;33.08;;;6.10;;
35644;SDS011;21764;52.042;6.830;2022-11-10T04:51:06;23.35;;;6.28;;
35644;SDS011;21764;52.042;6.830;2022-11-10T04:56:11;33.50;;;6.15;;
35644;SDS011;21764;52.042;6.830;2022-11-10T05:01:18;33.33;;;6.55;;
35644;SDS011;21764;52.042;6.830;2022-11-10T05:06:21;22.40;;;5.35;;
35644;SDS011;21764;52.042;6.830;2022-11-10T05:11:21;33.33;;;7.95;;
35644;SDS011;21764;52.042;6.830;2022-11-10T05:16:22;33.65;;;6.70;;
35644;SDS011;21764;52.042;6.830;2022-11-10T05:21:23;27.30;;;7.40;;
35644;SDS011;21764;52.042;6.830;2022-11-10T05:26:23;30.83;;;6.75;;
35644;SDS011;21764;52.042;6.830;2022-11-10T05:31:24;29.27;;;7.72;;
35644;SDS011;21764;52.042;6.830;2022-11-10T05:36:25;30.08;;;6.38;;
35644;SDS011;21764;52.042;6.830;2022-11-10T05:41:26;32.20;;;5.97;;
35644;SDS011;21764;52.042;6.830;2022-11-10T05:46:26;30.30;;;6.00;;
35644;SDS011;21764;52.042;6.830;2022-11-10T05:51:27;25.13;;;5.80;;
35644;SDS011;21764;52.042;6.830;2022-11-10T05:56:28;27.08;;;5.30;;
35644;SDS011;21764;52.042;6.830;2022-11-10T06:01:28;29.02;;;6.10;;
35644;SDS011;21764;52.042;6.830;2022-11-10T06:06:29;25.60;;;5.50;;
35644;SDS011;21764;52.042;6.830;2022-11-10T06:11:30;32.35;;;6.22;;
35644;SDS011;21764;52.042;6.830;2022-11-10T06:16:30;23.67;;;6.38;;
35644;SDS011;21764;52.042;6.830;2022-11-10T06:21:31;33.33;;;7.60;;
35644;SDS011;21764;52.042;6.830;2022-11-10T06:26:32;33.25;;;7.28;;
35644;SDS011;21764;52.042;6.830;2022-11-10T06:31:32;32.83;;;6.68;;
35644;SDS011;21764;52.042;6.830;2022-11-10T06:36:33;36.40;;;6.38;;
35644;SDS011;21764;52.042;6.830;2022-11-10T06:41:34;31.05;;;5.40;;
35644;SDS011;21764;52.042;6.830;2022-11-10T06:46:35;29.40;;;5.72;;
35644;SDS011;21764;52.042;6.830;2022-11-10T06:51:35;29.40;;;5.65;;
35644;SDS011;21764;52.042;6.830;2022-11-10T06:56:36;37.53;;;6.32;;
35644;SDS011;21764;52.042;6.830;2022-11-10T07:01:37;33.20;;;6.32;;
35644;SDS011;21764;52.042;6.830;2022-11-10T07:06:37;28.85;;;6.10;;
35644;SDS011;21764;52.042;6.830;2022-11-10T07:11:38;27.98;;;5.05;;
35644;SDS011;21764;52.042;6.830;2022-11-10T07:16:39;35.38;;;6.93;;
35644;SDS011;21764;52.042;6.830;2022-11-10T07:21:40;34.58;;;7.35;;
35644;SDS011;21764;52.042;6.830;2022-11-10T07:26:41;26.48;;;5.05;;
35644;SDS011;21764;52.042;6.830;2022-11-10T07:31:42;26.25;;;5.00;;
35644;SDS011;21764;52.042;6.830;2022-11-10T07:36:43;36.67;;;5.43;;
35644;SDS011;21764;52.042;6.830;2022-11-10T07:41:44;29.02;;;6.10;;
35644;SDS011;21764;52.042;6.830;2022-11-10T07:46:44;33.58;;;5.97;;
35644;SDS011;21764;52.042;6.830;2022-11-10T07:51:45;29.02;;;5.05;;
35644;SDS011;21764;52.042;6.830;2022-11-10T07:56:46;26.92;;;5.57;;
35644;SDS011;21764;52.042;6.830;2022-11-10T08:01:47;22.52;;;5.05;;
35644;SDS011;21764;52.042;6.830;2022-11-10T08:06:50;29.92;;;5.55;;
35644;SDS011;21764;52.042;6.830;2022-11-10T08:11:53;20.58;;;4.72;;
35644;SDS011;21764;52.042;6.830;2022-11-10T08:16:55;25.48;;;5.30;;
35644;SDS011;21764;52.042;6.830;2022-11-10T08:21:56;24.88;;;6.13;;
35644;SDS011;21764;52.042;6.830;2022-11-10T08:26:57;21.02;;;5.00;;
35644;SDS011;21764;52.042;6.830;2022-11-10T08:31:58;22.13;;;4.70;;
35644;SDS011;21764;52.042;6.830;2022-11-10T08:37:05;27.88;;;5.93;;
35644;SDS011;21764;52.042;6.830;2022-11-10T08:42:05;20.38;;;4.70;;
35644;SDS011;21764;52.042;6.830;2022-11-10T08:47:06;21.80;;;4.28;;
35644;SDS011;21764;52.042;6.830;2022-11-10T08:52:07;21.85;;;4.72;;
35644;SDS011;21764;52.042;6.830;2022-11-10T08:57:07;20.92;;;4.60;;
35644;SDS011;21764;52.042;6.830;2022-11-10T09:02:09;20.42;;;4.32;;
35644;SDS011;21764;52.042;6.830;2022-11-10T09:12:22;25.17;;;5.20;;
35644;SDS011;21764;52.042;6.830;2022-11-10T09:17:29;22.17;;;5.03;;
35644;SDS011;21764;52.042;6.830;2022-11-10T09:22:30;18.23;;;4.18;;
35644;SDS011;21764;52.042;6.830;2022-11-10T09:27:33;20.38;;;5.07;;
35644;SDS011;21764;52.042;6.830;2022-11-10T09:32:36;22.85;;;4.88;;
35644;SDS011;21764;52.042;6.830;2022-11-10T09:37:37;23.15;;;4.10;;
35644;SDS011;21764;52.042;6.830;2022-11-10T09:42:39;20.35;;;4.22;;
35644;SDS011;21764;52.042;6.830;2022-11-10T09:47:41;17.52;;;4.30;;
35644;SDS011;21764;52.042;6.830;2022-11-10T09:52:53;19.38;;;4.40;;
35644;SDS011;21764;52.042;6.830;2022-11-10T09:57:54;17.00;;;4.30;;
35644;SDS011;21764;52.042;6.830;2022-11-10T10:03:01;19.77;;;3.78;;
35644;SDS011;21764;52.042;6.830;2022-11-10T10:08:07;21.85;;;4.90;;
35644;SDS011;21764;52.042;6.830;2022-11-10T10:18:45;22.90;;;4.05;;
35644;SDS011;21764;52.042;6.830;2022-11-10T10:24:02;23.52;;;4.65;;
35644;SDS011;21764;52.042;6.830;2022-11-10T10:29:06;22.45;;;4.00;;
35644;SDS011;21764;52.042;6.830;2022-11-10T10:39:16;22.67;;;4.22;;
35644;SDS011;21764;52.042;6.830;2022-11-10T10:44:25;22.55;;;4.57;;
35644;SDS011;21764;52.042;6.830;2022-11-10T10:49:26;19.27;;;3.88;;
35644;SDS011;21764;52.042;6.830;2022-11-10T10:54:29;26.73;;;4.32;;
35644;SDS011;21764;52.042;6.830;2022-11-10T10:59:32;23.25;;;3.75;;
35644;SDS011;21764;52.042;6.830;2022-11-10T11:04:34;30.38;;;5.00;;
35644;SDS011;21764;52.042;6.830;2022-11-10T11:09:42;23.77;;;5.10;;
35644;SDS011;21764;52.042;6.830;2022-11-10T11:14:43;24.40;;;4.78;;
35644;SDS011;21764;52.042;6.830;2022-11-10T11:19:43;22.77;;;4.55;;
35644;SDS011;21764;52.042;6.830;2022-11-10T11:40:29;19.88;;;3.85;;
35644;SDS011;21764;52.042;6.830;2022-11-10T11:56:26;27.17;;;4.68;;
35644;SDS011;21764;52.042;6.830;2022-11-10T12:23:38;18.98;;;4.10;;
35644;SDS011;21764;52.042;6.830;2022-11-10T12:29:08;25.70;;;4.50;;
35644;SDS011;21764;52.042;6.830;2022-11-10T12:34:23;25.05;;;4.45;;
35644;SDS011;21764;52.042;6.830;2022-11-10T12:39:52;21.65;;;3.88;;
35644;SDS011;21764;52.042;6.830;2022-11-10T12:45:20;31.95;;;4.55;;
35644;SDS011;21764;52.042;6.830;2022-11-10T12:56:06;16.75;;;3.10;;
35644;SDS011;21764;52.042;6.830;2022-11-10T13:01:20;20.98;;;3.92;;
35644;SDS011;21764;52.042;6.830;2022-11-10T13:07:06;20.08;;;3.83;;
35644;SDS011;21764;52.042;6.830;2022-11-10T13:12:02;20.15;;;3.40;;
35644;SDS011;21764;52.042;6.830;2022-11-10T13:17:06;18.38;;;3.40;;
35644;SDS011;21764;52.042;6.830;2022-11-10T13:22:10;20.90;;;3.38;;
35644;SDS011;21764;52.042;6.830;2022-11-10T13:27:12;23.23;;;3.25;;
35644;SDS011;21764;52.042;6.830;2022-11-10T13:32:32;30.45;;;4.00;;
35644;SDS011;21764;52.042;6.830;2022-11-10T13:42:34;20.73;;;3.33;;
35644;SDS011;21764;52.042;6.830;2022-11-10T13:58:24;20.25;;;2.88;;
35644;SDS011;21764;52.042;6.830;2022-11-10T14:08:55;17.25;;;3.17;;
35644;SDS011;21764;52.042;6.830;2022-11-10T14:24:28;17.63;;;3.13;;
35644;SDS011;21764;52.042;6.830;2022-11-10T14:29:35;15.25;;;2.80;;
35644;SDS011;21764;52.042;6.830;2022-11-10T14:34:43;24.15;;;2.90;;
35644;SDS011;21764;52.042;6.830;2022-11-10T14:39:46;16.10;;;3.20;;
35644;SDS011;21764;52.042;6.830;2022-11-10T14:44:49;17.33;;;4.18;;
35644;SDS011;21764;52.042;6.830;2022-11-10T14:55:25;18.30;;;3.42;;
35644;SDS011;21764;52.042;6.830;2022-11-10T15:00:28;11.85;;;2.83;;
35644;SDS011;21764;52.042;6.830;2022-11-10T15:05:34;19.45;;;3.33;;
35644;SDS011;21764;52.042;6.830;2022-11-10T15:15:39;12.43;;;3.58;;
35644;SDS011;21764;52.042;6.830;2022-11-10T15:20:40;23.75;;;5.75;;
35644;SDS011;21764;52.042;6.830;2022-11-10T15:25:41;29.42;;;6.10;;
35644;SDS011;21764;52.042;6.830;2022-11-10T15:30:52;16.40;;;3.47;;
35644;SDS011;21764;52.042;6.830;2022-11-10T15:35:58;18.58;;;4.53;;
35644;SDS011;21764;52.042;6.830;2022-11-10T15:41:15;20.83;;;3.38;;
35644;SDS011;21764;52.042;6.830;2022-11-10T15:46:23;15.38;;;3.42;;
35644;SDS011;21764;52.042;6.830;2022-11-10T15:51:25;25.33;;;4.03;;
35644;SDS011;21764;52.042;6.830;2022-11-10T15:56:26;13.55;;;3.38;;
35644;SDS011;21764;52.042;6.830;2022-11-10T16:01:26;15.90;;;3.10;;
35644;SDS011;21764;52.042;6.830;2022-11-10T16:06:27;14.43;;;3.15;;
35644;SDS011;21764;52.042;6.830;2022-11-10T16:11:29;14.75;;;2.92;;
35644;SDS011;21764;52.042;6.830;2022-11-10T16:16:30;16.27;;;2.83;;
35644;SDS011;21764;52.042;6.830;2022-11-10T16:21:31;25.00;;;5.32;;
35644;SDS011;21764;52.042;6.830;2022-11-10T16:26:32;12.65;;;3.47;;
35644;SDS011;21764;52.042;6.830;2022-11-10T16:31:34;17.70;;;4.80;;
35644;SDS011;21764;52.042;6.830;2022-11-10T16:36:37;15.63;;;3.58;;
35644;SDS011;21764;52.042;6.830;2022-11-10T16:41:40;11.75;;;2.70;;
35644;SDS011;21764;52.042;6.830;2022-11-10T16:46:41;13.50;;;3.20;;
35644;SDS011;21764;52.042;6.830;2022-11-10T16:51:44;23.92;;;4.28;;
35644;SDS011;21764;52.042;6.830;2022-11-10T16:56:44;13.45;;;4.13;;
35644;SDS011;21764;52.042;6.830;2022-11-10T17:01:45;19.92;;;3.17;;
35644;SDS011;21764;52.042;6.830;2022-11-10T17:06:47;11.82;;;3.45;;
35644;SDS011;21764;52.042;6.830;2022-11-10T17:11:47;23.73;;;5.20;;
35644;SDS011;21764;52.042;6.830;2022-11-10T17:16:48;15.93;;;3.75;;
35644;SDS011;21764;52.042;6.830;2022-11-10T17:21:49;15.77;;;3.83;;
35644;SDS011;21764;52.042;6.830;2022-11-10T17:26:52;23.85;;;5.00;;
35644;SDS011;21764;52.042;6.830;2022-11-10T17:31:53;16.85;;;3.75;;
35644;SDS011;21764;52.042;6.830;2022-11-10T17:36:54;23.63;;;3.58;;
35644;SDS011;21764;52.042;6.830;2022-11-10T17:41:55;15.30;;;3.30;;
35644;SDS011;21764;52.042;6.830;2022-11-10T17:46:56;15.65;;;4.22;;
35644;SDS011;21764;52.042;6.830;2022-11-10T17:51:56;15.30;;;3.05;;
35644;SDS011;21764;52.042;6.830;2022-11-10T17:56:57;20.17;;;3.00;;
35644;SDS011;21764;52.042;6.830;2022-11-10T18:01:58;16.02;;;3.42;;
35644;SDS011;21764;52.042;6.830;2022-11-10T18:07:00;20.17;;;3.10;;
35644;SDS011;21764;52.042;6.830;2022-11-10T18:12:00;16.75;;;3.95;;
35644;SDS011;21764;52.042;6.830;2022-11-10T18:17:01;18.85;;;4.00;;
35644;SDS011;21764;52.042;6.830;2022-11-10T18:22:01;17.83;;;3.60;;
35644;SDS011;21764;52.042;6.830;2022-11-10T18:27:08;20.20;;;3.80;;
35644;SDS011;21764;52.042;6.830;2022-11-10T18:32:09;18.70;;;3.80;;
35644;SDS011;21764;52.042;6.830;2022-11-10T18:37:10;15.18;;;3.97;;
35644;SDS011;21764;52.042;6.830;2022-11-10T18:42:10;15.32;;;4.18;;
35644;SDS011;21764;52.042;6.830;2022-11-10T18:47:12;25.98;;;3.75;;
35644;SDS011;21764;52.042;6.830;2022-11-10T18:52:13;14.55;;;3.42;;
35644;SDS011;21764;52.042;6.830;2022-11-10T18:57:13;17.30;;;3.70;;
35644;SDS011;21764;52.042;6.830;2022-11-10T19:02:15;18.33;;;3.97;;
35644;SDS011;21764;52.042;6.830;2022-11-10T19:07:18;16.30;;;4.60;;
35644;SDS011;21764;52.042;6.830;2022-11-10T19:12:19;22.02;;;5.28;;
35644;SDS011;21764;52.042;6.830;2022-11-10T19:17:20;18.67;;;4.32;;
35644;SDS011;21764;52.042;6.830;2022-11-10T19:22:21;21.63;;;4.20;;
35644;SDS011;21764;52.042;6.830;2022-11-10T19:27:21;18.40;;;4.35;;
35644;SDS011;21764;52.042;6.830;2022-11-10T19:32:22;26.63;;;5.38;;
35644;SDS011;21764;52.042;6.830;2022-11-10T19:37:23;18.73;;;3.75;;
35644;SDS011;21764;52.042;6.830;2022-11-10T19:42:23;13.45;;;3.65;;
35644;SDS011;21764;52.042;6.830;2022-11-10T19:47:24;10.38;;;3.95;;
35644;SDS011;21764;52.042;6.830;2022-11-10T19:52:25;18.30;;;5.10;;
35644;SDS011;21764;52.042;6.830;2022-11-10T19:57:25;16.85;;;4.68;;
35644;SDS011;21764;52.042;6.830;2022-11-10T20:02:27;18.42;;;5.80;;
35644;SDS011;21764;52.042;6.830;2022-11-10T20:07:27;23.48;;;5.32;;
35644;SDS011;21764;52.042;6.830;2022-11-10T20:12:46;17.42;;;4.50;;
35644;SDS011;21764;52.042;6.830;2022-11-10T20:23:36;17.52;;;4.53;;
35644;SDS011;21764;52.042;6.830;2022-11-10T20:28:37;19.15;;;5.05;;
35644;SDS011;21764;52.042;6.830;2022-11-10T20:33:38;15.93;;;4.97;;
35644;SDS011;21764;52.042;6.830;2022-11-10T20:38:39;20.55;;;5.90;;
35644;SDS011;21764;52.042;6.830;2022-11-10T20:43:40;19.40;;;4.70;;
35644;SDS011;21764;52.042;6.830;2022-11-10T20:48:41;19.17;;;5.85;;
35644;SDS011;21764;52.042;6.830;2022-11-10T20:53:43;11.77;;;4.38;;
35644;SDS011;21764;52.042;6.830;2022-11-10T20:59:05;19.77;;;4.47;;
35644;SDS011;21764;52.042;6.830;2022-11-10T21:04:06;22.30;;;4.43;;
35644;SDS011;21764;52.042;6.830;2022-11-10T21:09:06;16.10;;;4.72;;
35644;SDS011;21764;52.042;6.830;2022-11-10T21:14:12;14.10;;;5.10;;
35644;SDS011;21764;52.042;6.830;2022-11-10T21:19:13;15.48;;;4.82;;
35644;SDS011;21764;52.042;6.830;2022-11-10T21:24:13;14.65;;;5.00;;
35644;SDS011;21764;52.042;6.830;2022-11-10T21:29:14;17.50;;;5.60;;
35644;SDS011;21764;52.042;6.830;2022-11-10T21:39:38;12.27;;;4.93;;
35644;SDS011;21764;52.042;6.830;2022-11-10T21:44:43;13.55;;;5.45;;
35644;SDS011;21764;52.042;6.830;2022-11-10T21:49:49;16.60;;;4.85;;
35644;SDS011;21764;52.042;6.830;2022-11-10T21:54:49;12.00;;;4.50;;
35644;SDS011;21764;52.042;6.830;2022-11-10T21:59:53;19.02;;;5.32;;
35644;SDS011;21764;52.042;6.830;2022-11-10T22:04:54;17.45;;;4.15;;
35644;SDS011;21764;52.042;6.830;2022-11-10T22:09:54;15.40;;;5.00;;
35644;SDS011;21764;52.042;6.830;2022-11-10T22:15:14;22.90;;;4.93;;
35644;SDS011;21764;52.042;6.830;2022-11-10T22:20:33;14.13;;;5.25;;
35644;SDS011;21764;52.042;6.830;2022-11-10T22:25:33;14.57;;;5.47;;
35644;SDS011;21764;52.042;6.830;2022-11-10T22:30:35;12.30;;;4.50;;
35644;SDS011;21764;52.042;6.830;2022-11-10T22:35:36;17.17;;;4.80;;
35644;SDS011;21764;52.042;6.830;2022-11-10T22:40:43;13.50;;;4.78;;
35644;SDS011;21764;52.042;6.830;2022-11-10T22:46:02;21.88;;;5.32;;
35644;SDS011;21764;52.042;6.830;2022-11-10T22:51:03;16.38;;;5.20;;
35644;SDS011;21764;52.042;6.830;2022-11-10T22:56:22;14.02;;;5.18;;
35644;SDS011;21764;52.042;6.830;2022-11-10T23:01:36;10.75;;;4.75;;
35644;SDS011;21764;52.042;6.830;2022-11-10T23:06:42;18.02;;;6.43;;
35644;SDS011;21764;52.042;6.830;2022-11-10T23:11:43;14.07;;;4.45;;
35644;SDS011;21764;52.042;6.830;2022-11-10T23:16:44;21.27;;;5.15;;
35644;SDS011;21764;52.042;6.830;2022-11-10T23:21:44;19.48;;;5.35;;
35644;SDS011;21764;52.042;6.830;2022-11-10T23:26:45;24.02;;;5.57;;
35644;SDS011;21764;52.042;6.830;2022-11-10T23:31:47;18.75;;;5.38;;
35644;SDS011;21764;52.042;6.830;2022-11-10T23:37:25;20.33;;;5.63;;
35644;SDS011;21764;52.042;6.830;2022-11-10T23:55:18;18.95;;;5.75;;
